createdAt,value
2018-11-27T00:02:10.318Z,28.90
2018-11-27T00:07:12.918Z,33.85
2018-11-27T00:12:15.425Z,33.18
2018-11-27T00:17:18.069Z,31.05
2018-11-27T00:22:20.539Z,28.50
2018-11-27T00:27:22.979Z,30.25
2018-11-27T00:32:25.533Z,31.17
2018-11-27T00:37:28.074Z,29.82
2018-11-27T00:42:30.549Z,28.67
2018-11-27T00:47:33.421Z,36.10
2018-11-27T00:52:35.827Z,33.35
2018-11-27T00:57:38.855Z,31.65
2018-11-27T01:02:41.250Z,35.10
2018-11-27T01:07:44.164Z,30.05
2018-11-27T01:12:46.647Z,32.55
2018-11-27T01:17:51.435Z,29.18
2018-11-27T01:22:53.945Z,29.55
2018-11-27T01:27:56.389Z,33.15
2018-11-27T01:32:58.773Z,31.65
2018-11-27T01:38:01.215Z,30.48
2018-11-27T01:43:03.929Z,32.38
2018-11-27T01:48:06.429Z,29.98
2018-11-27T01:53:09.052Z,29.70
2018-11-27T01:58:11.551Z,37.25
2018-11-27T02:03:14.246Z,33.18
2018-11-27T02:08:16.814Z,30.68
2018-11-27T02:13:19.192Z,34.40
2018-11-27T02:18:21.819Z,29.57
2018-11-27T02:23:24.450Z,32.55
2018-11-27T02:28:27.152Z,39.10
2018-11-27T02:33:29.738Z,35.85
2018-11-27T02:38:32.355Z,40.12
2018-11-27T02:43:35.811Z,37.15
2018-11-27T02:48:38.369Z,32.85
2018-11-27T02:53:40.923Z,34.20
2018-11-27T02:58:43.357Z,36.15
2018-11-27T03:03:45.833Z,34.88
2018-11-27T03:08:48.403Z,37.45
2018-11-27T03:13:50.876Z,36.23
2018-11-27T03:18:53.256Z,36.90
2018-11-27T03:23:55.793Z,35.45
2018-11-27T03:28:58.227Z,35.50
2018-11-27T03:34:00.886Z,32.85
2018-11-27T03:39:05.857Z,34.58
2018-11-27T03:44:08.515Z,36.17
2018-11-27T03:49:10.985Z,40.65
2018-11-27T03:54:13.409Z,39.42
2018-11-27T03:59:15.884Z,32.35
2018-11-27T04:04:18.481Z,32.78
2018-11-27T04:09:21.025Z,40.05
2018-11-27T04:14:23.495Z,37.35
2018-11-27T04:19:25.937Z,39.92
2018-11-27T04:24:28.378Z,36.23
2018-11-27T04:29:30.868Z,38.35
2018-11-27T04:34:33.662Z,38.40
2018-11-27T04:39:36.142Z,37.28
2018-11-27T04:44:38.544Z,40.15
2018-11-27T04:49:40.988Z,33.48
2018-11-27T04:54:43.360Z,40.08
2018-11-27T04:59:45.834Z,35.73
2018-11-27T05:04:48.326Z,38.28
2018-11-27T05:09:50.738Z,37.50
2018-11-27T05:14:53.184Z,35.73
2018-11-27T05:19:55.582Z,42.10
2018-11-27T05:24:58.044Z,34.40
2018-11-27T05:30:00.425Z,38.38
2018-11-27T05:35:03.176Z,39.63
2018-11-27T05:40:09.234Z,37.30
2018-11-27T05:45:14.119Z,43.30
2018-11-27T05:50:17.217Z,38.17
2018-11-27T05:55:19.644Z,42.20
2018-11-27T06:00:24.350Z,44.08
2018-11-27T06:05:33.935Z,40.85
2018-11-27T06:10:36.436Z,41.05
2018-11-27T06:20:48.027Z,38.02
2018-11-27T06:25:51.199Z,38.60
2018-11-27T06:30:53.654Z,39.35
2018-11-27T06:35:56.116Z,40.30
2018-11-27T06:40:58.611Z,41.48
2018-11-27T06:46:01.142Z,36.83
2018-11-27T06:51:03.963Z,31.35
2018-11-27T06:56:06.729Z,41.33
2018-11-27T07:01:09.129Z,41.13
2018-11-27T07:06:11.519Z,40.30
2018-11-27T07:11:14.013Z,43.58
2018-11-27T07:16:16.509Z,38.02
2018-11-27T07:21:19.207Z,39.85
2018-11-27T07:26:21.908Z,30.85
2018-11-27T07:31:24.355Z,35.23
2018-11-27T07:36:26.887Z,36.30
2018-11-27T07:41:29.394Z,37.98
2018-11-27T07:46:31.958Z,37.67
2018-11-27T07:51:34.416Z,35.25
2018-11-27T07:56:37.674Z,34.55
2018-11-27T08:01:40.291Z,34.18
2018-11-27T08:06:42.761Z,38.30
2018-11-27T08:11:45.265Z,36.93
2018-11-27T08:16:47.718Z,41.68
2018-11-27T08:21:50.183Z,37.83
2018-11-27T08:26:52.764Z,34.13
2018-11-27T08:31:55.204Z,37.28
2018-11-27T08:36:57.710Z,44.25
2018-11-27T08:42:00.212Z,36.35
2018-11-27T08:47:02.715Z,35.13
2018-11-27T08:52:05.261Z,40.65
2018-11-27T08:57:07.744Z,40.30
2018-11-27T09:02:10.396Z,40.63
2018-11-27T09:07:12.791Z,33.15
2018-11-27T09:12:15.290Z,37.35
2018-11-27T09:17:17.802Z,36.73
2018-11-27T09:22:20.285Z,39.98
2018-11-27T09:27:22.753Z,38.08
2018-11-27T09:32:25.236Z,33.92
2018-11-27T09:37:27.758Z,44.03
2018-11-27T09:42:30.231Z,42.20
2018-11-27T09:47:32.634Z,40.15
2018-11-27T09:52:35.040Z,35.23
2018-11-27T09:57:37.531Z,35.50
2018-11-27T10:02:40.036Z,39.98
2018-11-27T10:07:42.491Z,47.62
2018-11-27T10:12:44.979Z,42.48
2018-11-27T10:17:51.747Z,41.15
2018-11-27T10:22:54.276Z,41.53
2018-11-27T10:27:56.975Z,42.70
2018-11-27T10:32:59.445Z,45.55
2018-11-27T10:38:02.179Z,42.05
2018-11-27T10:43:05.198Z,42.13
2018-11-27T10:48:07.688Z,40.95
2018-11-27T10:53:11.254Z,43.17
2018-11-27T10:58:13.787Z,38.60
2018-11-27T11:03:46.847Z,40.20
2018-11-27T11:08:49.292Z,42.78
2018-11-27T11:13:51.805Z,39.67
2018-11-27T11:18:54.286Z,37.93
2018-11-27T11:23:56.799Z,45.63
2018-11-27T11:28:59.334Z,41.25
2018-11-27T11:34:01.779Z,43.28
2018-11-27T11:39:08.391Z,42.98
2018-11-27T11:44:10.871Z,38.17
2018-11-27T11:49:13.334Z,37.15
2018-11-27T11:54:15.717Z,39.00
2018-11-27T11:59:18.239Z,44.08
2018-11-27T12:04:20.784Z,45.65
2018-11-27T12:09:23.256Z,42.13
2018-11-27T12:14:25.756Z,44.93
2018-11-27T12:19:28.214Z,39.78
2018-11-27T12:24:30.943Z,39.33
2018-11-27T12:29:33.396Z,40.30
2018-11-27T12:34:35.829Z,40.80
2018-11-27T12:39:38.388Z,42.60
2018-11-27T12:44:40.823Z,38.58
2018-11-27T12:49:43.300Z,43.40
2018-11-27T12:54:46.075Z,51.23
2018-11-27T12:59:48.527Z,43.78
2018-11-27T13:04:50.973Z,48.48
2018-11-27T13:09:53.474Z,44.98
2018-11-27T13:14:55.889Z,44.10
2018-11-27T13:19:58.386Z,45.52
2018-11-27T13:25:00.906Z,46.53
2018-11-27T13:30:04.410Z,46.30
2018-11-27T13:35:09.327Z,45.75
2018-11-27T13:40:12.404Z,46.98
2018-11-27T13:45:15.501Z,42.65
2018-11-27T13:50:17.936Z,43.15
2018-11-27T13:55:21.543Z,42.78
2018-11-27T14:00:24.099Z,44.33
2018-11-27T14:05:26.616Z,42.27
2018-11-27T14:10:29.248Z,46.15
2018-11-27T14:15:31.734Z,48.63
2018-11-27T14:20:34.249Z,43.73
2018-11-27T14:25:36.678Z,45.60
2018-11-27T14:30:39.190Z,44.20
2018-11-27T14:35:41.669Z,43.58
2018-11-27T14:40:44.156Z,48.30
2018-11-27T14:45:46.634Z,41.70
2018-11-27T14:50:49.026Z,47.20
2018-11-27T14:55:51.574Z,44.42
2018-11-27T15:00:54.005Z,45.03
2018-11-27T15:05:56.470Z,45.08
2018-11-27T15:10:58.985Z,47.08
2018-11-27T15:16:01.368Z,46.40
2018-11-27T15:21:04.162Z,40.40
2018-11-27T15:26:06.629Z,41.85
2018-11-27T15:31:09.099Z,45.40
2018-11-27T15:36:11.588Z,40.23
2018-11-27T15:41:14.113Z,45.58
2018-11-27T15:46:16.626Z,50.17
2018-11-27T15:51:19.153Z,42.45
2018-11-27T15:56:21.711Z,39.15
2018-11-27T16:01:24.211Z,40.03
2018-11-27T16:06:26.653Z,41.35
2018-11-27T16:11:30.140Z,40.33
2018-11-27T16:16:32.636Z,38.23
2018-11-27T16:21:35.119Z,34.67
2018-11-27T16:26:37.695Z,39.88
2018-11-27T16:31:40.218Z,45.70
2018-11-27T16:36:43.355Z,38.78
2018-11-27T16:41:45.951Z,44.65
2018-11-27T16:46:48.361Z,43.75
2018-11-27T16:51:50.787Z,37.30
2018-11-27T16:56:53.507Z,36.10
2018-11-27T17:01:56.046Z,37.95
2018-11-27T17:06:58.519Z,40.00
2018-11-27T17:12:01.045Z,41.48
2018-11-27T17:17:03.774Z,43.15
2018-11-27T17:22:07.123Z,35.55
2018-11-27T17:27:09.200Z,38.58
2018-11-27T17:32:11.762Z,41.60
2018-11-27T17:37:14.236Z,36.15
2018-11-27T17:42:16.711Z,39.95
2018-11-27T17:47:19.065Z,44.03
2018-11-27T17:52:21.625Z,44.65
2018-11-27T17:57:24.299Z,39.03
2018-11-27T18:02:27.035Z,45.08
2018-11-27T18:07:29.770Z,38.83
2018-11-27T18:12:33.713Z,39.88
2018-11-27T18:17:34.997Z,38.28
2018-11-27T18:22:37.781Z,39.45
2018-11-27T18:27:40.699Z,37.53
2018-11-27T18:32:43.287Z,47.40
2018-11-27T18:37:46.162Z,38.25
2018-11-27T18:42:48.867Z,32.70
2018-11-27T18:47:51.420Z,42.60
2018-11-27T18:52:53.945Z,42.62
2018-11-27T18:57:56.397Z,38.17
2018-11-27T19:02:58.847Z,40.15
2018-11-27T19:08:01.643Z,47.05
2018-11-27T19:13:05.592Z,42.67
2018-11-27T19:18:19.780Z,44.55
2018-11-27T19:23:25.185Z,38.63
2018-11-27T19:28:27.696Z,43.63
2018-11-27T19:33:30.262Z,44.03
2018-11-27T19:38:32.777Z,41.53
2018-11-27T19:43:35.359Z,39.20
2018-11-27T19:48:38.028Z,43.15
2018-11-27T19:53:40.692Z,45.28
2018-11-27T19:58:43.280Z,40.10
2018-11-27T20:03:46.292Z,45.98
2018-11-27T20:08:49.123Z,44.13
2018-11-27T20:13:52.018Z,44.83
2018-11-27T20:18:54.694Z,44.40
2018-11-27T20:23:57.272Z,39.73
2018-11-27T20:28:59.971Z,46.73
2018-11-27T20:34:02.643Z,42.98
2018-11-27T20:39:08.595Z,38.45
2018-11-27T20:44:11.396Z,43.95
2018-11-27T20:49:14.349Z,43.75
2018-11-27T20:54:18.396Z,42.53
2018-11-27T20:59:28.466Z,45.60
2018-11-27T21:04:36.090Z,47.08
2018-11-27T21:09:45.486Z,47.33
2018-11-27T21:14:50.758Z,50.70
2018-11-27T21:19:54.557Z,43.73
2018-11-27T21:24:57.370Z,44.95
2018-11-27T21:35:24.822Z,43.70
2018-11-27T21:40:37.060Z,51.95
2018-11-27T21:45:45.520Z,50.43
2018-11-27T21:50:49.828Z,49.05
2018-11-27T21:55:52.522Z,51.05
2018-11-27T22:00:55.035Z,53.50
2018-11-27T22:05:57.718Z,51.92
2018-11-27T22:11:06.804Z,44.77
2018-11-27T22:16:09.323Z,48.60
2018-11-27T22:21:11.832Z,51.73
2018-11-27T22:26:14.322Z,53.63
2018-11-27T22:31:16.822Z,46.80
2018-11-27T22:36:19.292Z,51.10
2018-11-27T22:41:21.787Z,48.58
2018-11-27T22:46:24.287Z,49.05
2018-11-27T22:51:27.085Z,52.58
2018-11-27T22:56:29.569Z,49.08
2018-11-27T23:01:38.451Z,49.33
2018-11-27T23:06:42.039Z,44.93
2018-11-27T23:11:44.771Z,44.50
2018-11-27T23:16:47.324Z,47.10
2018-11-27T23:21:49.812Z,50.63
2018-11-27T23:26:52.362Z,51.83
2018-11-27T23:31:55.279Z,50.12
2018-11-27T23:36:57.952Z,44.50
2018-11-27T23:42:00.469Z,47.13
2018-11-27T23:47:03.024Z,45.73
2018-11-27T23:52:05.719Z,43.28
2018-11-27T23:57:08.194Z,52.23
